Time;durP1;ratioP1;P1;durP2;ratioP2;P2;SDS_P1;SDS_P2;PMS_P1;PMS_P2;Temp;Humidity;BMP_temperature;BMP_pressure;BME280_temperature;BME280_humidity;BME280_pressure;Samples;Min_cycle;Max_cycle;Signal;HPM_P1;HPM_P2
2023/04/29 00:01:25;;;;;;;37.38;24.95;;;9.60;99.90;;;;;;5032695;28;20041;-80
2023/04/29 00:03:51;;;;;;;38.03;24.60;;;9.60;99.90;;;;;;5050679;28;20120;-80
2023/04/29 00:06:17;;;;;;;38.28;24.20;;;9.60;99.90;;;;;;5016663;28;20037;-80
2023/04/29 00:08:43;;;;;;;37.47;24.13;;;9.50;99.90;;;;;;5052743;28;20061;-80
2023/04/29 00:11:10;;;;;;;38.92;22.45;;;9.50;99.90;;;;;;5062396;28;20136;-80
2023/04/29 00:13:36;;;;;;;33.22;22.85;;;9.50;99.90;;;;;;5032153;28;20041;-80
2023/04/29 00:16:02;;;;;;;36.63;24.13;;;9.50;99.90;;;;;;5050265;28;20040;-80
2023/04/29 00:18:28;;;;;;;36.53;23.80;;;9.40;99.90;;;;;;5050204;28;20164;-80
2023/04/29 00:20:53;;;;;;;29.25;19.73;;;9.40;99.90;;;;;;5050573;28;20139;-80
2023/04/29 00:23:22;;;;;;;31.15;21.45;;;9.50;99.90;;;;;;5031420;28;20118;-80
2023/04/29 00:25:48;;;;;;;34.92;22.48;;;9.40;99.90;;;;;;5032824;28;20434;-80
2023/04/29 00:28:13;;;;;;;35.60;22.73;;;9.40;99.90;;;;;;5050127;28;20041;-80
2023/04/29 00:30:39;;;;;;;33.35;20.60;;;9.40;99.90;;;;;;5032247;28;20129;-80
2023/04/29 00:33:05;;;;;;;33.30;21.33;;;9.40;99.90;;;;;;5031575;28;20138;-80
2023/04/29 00:35:30;;;;;;;38.92;22.63;;;9.40;99.90;;;;;;5046228;28;20509;-80
2023/04/29 00:37:57;;;;;;;35.22;21.83;;;9.40;99.90;;;;;;5048073;28;20419;-80
2023/04/29 00:40:22;;;;;;;36.90;22.58;;;9.40;99.90;;;;;;5048148;28;20150;-80
2023/04/29 00:42:48;;;;;;;34.40;21.80;;;9.40;99.90;;;;;;5027034;28;20475;-80
2023/04/29 00:45:13;;;;;;;33.90;22.25;;;9.40;99.90;;;;;;5040274;28;20095;-80
2023/04/29 00:47:39;;;;;;;30.35;21.70;;;9.30;99.90;;;;;;5030204;28;20041;-80
2023/04/29 00:50:06;;;;;;;36.78;23.13;;;9.40;99.90;;;;;;5049850;28;20076;-80
2023/04/29 00:52:33;;;;;;;31.88;21.58;;;9.30;99.90;;;;;;5031681;28;20072;-80
2023/04/29 00:54:58;;;;;;;33.67;21.83;;;9.30;99.90;;;;;;5029327;28;20750;-80
2023/04/29 00:57:27;;;;;;;30.52;20.30;;;9.30;99.90;;;;;;5031189;28;20044;-80
2023/04/29 00:59:54;;;;;;;35.90;20.77;;;9.40;99.90;;;;;;5047815;28;20099;-80
2023/04/29 01:02:20;;;;;;;28.98;20.30;;;9.30;99.90;;;;;;5015121;28;20170;-80
2023/04/29 01:04:46;;;;;;;30.27;20.48;;;9.40;99.90;;;;;;5029200;28;20048;-80
2023/04/29 01:07:20;;;;;;;33.67;21.13;;;9.40;99.90;;;;;;5048480;28;20503;-80
2023/04/29 01:10:13;;;;;;;30.88;19.35;;;9.40;99.90;;;;;;5047360;28;20142;-80
2023/04/29 01:12:53;;;;;;;31.83;20.50;;;9.30;99.90;;;;;;5030208;28;20072;-80
2023/04/29 01:15:37;;;;;;;32.38;19.73;;;9.30;99.90;;;;;;5030464;28;20060;-80
2023/04/29 01:18:10;;;;;;;32.25;19.48;;;9.40;99.90;;;;;;5047646;28;20132;-80
2023/04/29 01:20:37;;;;;;;28.60;18.67;;;9.40;99.90;;;;;;5031431;28;20395;-80
2023/04/29 01:23:03;;;;;;;29.55;19.90;;;9.40;99.90;;;;;;5030432;28;20051;-80
2023/04/29 01:25:28;;;;;;;29.35;19.25;;;9.40;99.90;;;;;;5014084;28;20048;-80
2023/04/29 01:28:13;;;;;;;27.67;19.25;;;9.30;99.90;;;;;;5047004;28;20043;-80
2023/04/29 01:30:49;;;;;;;28.92;19.17;;;9.40;99.90;;;;;;5015360;28;20076;-80
2023/04/29 01:33:42;;;;;;;27.35;20.30;;;9.40;99.90;;;;;;5030569;28;20103;-80
2023/04/29 01:36:17;;;;;;;30.45;19.02;;;9.30;99.90;;;;;;5030538;28;20158;-80
2023/04/29 01:38:46;;;;;;;32.53;19.80;;;9.30;99.90;;;;;;5048094;28;20060;-79
2023/04/29 01:41:27;;;;;;;30.52;18.83;;;9.30;99.90;;;;;;5028901;28;22203;-79
2023/04/29 01:43:56;;;;;;;27.13;19.00;;;9.30;99.90;;;;;;5029983;28;20045;-80
2023/04/29 01:46:24;;;;;;;30.38;19.67;;;9.30;99.90;;;;;;5036879;28;20060;-80
2023/04/29 01:48:53;;;;;;;33.25;20.35;;;9.30;99.90;;;;;;5011452;28;20037;-80
2023/04/29 01:51:19;;;;;;;35.70;21.55;;;9.30;99.90;;;;;;5029619;28;20057;-80
2023/04/29 01:53:44;;;;;;;29.00;20.60;;;9.30;99.90;;;;;;5029118;28;20127;-80
2023/04/29 01:56:10;;;;;;;32.10;21.98;;;9.30;99.90;;;;;;5013860;28;20109;-80
2023/04/29 01:58:35;;;;;;;34.35;20.80;;;9.30;99.90;;;;;;5013833;28;20495;-80
2023/04/29 02:01:01;;;;;;;30.50;20.13;;;9.30;99.90;;;;;;5030800;28;20135;-79
2023/04/29 02:03:26;;;;;;;31.35;20.67;;;9.30;99.90;;;;;;5029856;28;20132;-79
2023/04/29 02:05:52;;;;;;;33.95;20.85;;;9.30;99.90;;;;;;5007494;28;20076;-80
2023/04/29 02:08:18;;;;;;;33.20;19.92;;;9.30;99.90;;;;;;5042219;28;20499;-80
2023/04/29 02:10:56;;;;;;;34.67;21.60;;;9.30;99.90;;;;;;5028813;28;20480;-80
2023/04/29 02:13:22;;;;;;;31.02;20.33;;;9.30;99.90;;;;;;5047122;28;20501;-79
2023/04/29 02:15:48;;;;;;;33.30;20.55;;;9.30;99.90;;;;;;5029980;28;20086;-79
2023/04/29 02:18:14;;;;;;;31.58;20.00;;;9.20;99.90;;;;;;5028444;28;20500;-79
2023/04/29 02:20:40;;;;;;;28.92;19.10;;;9.30;99.90;;;;;;5030341;28;20044;-80
2023/04/29 02:23:05;;;;;;;31.58;19.88;;;9.30;99.90;;;;;;5029145;28;20049;-79
2023/04/29 02:25:31;;;;;;;30.75;18.63;;;9.20;99.90;;;;;;5028663;28;20048;-79
2023/04/29 02:27:56;;;;;;;30.38;20.25;;;9.20;99.90;;;;;;5030315;28;20132;-80
2023/04/29 02:30:22;;;;;;;30.05;19.30;;;9.20;99.90;;;;;;5047636;28;20089;-80
2023/04/29 02:32:47;;;;;;;31.27;18.98;;;9.20;99.90;;;;;;5047125;28;20040;-79
2023/04/29 02:35:15;;;;;;;31.55;18.83;;;9.20;99.90;;;;;;5046535;28;20466;-80
2023/04/29 02:37:40;;;;;;;30.23;18.48;;;9.20;99.90;;;;;;5029058;28;20053;-80
2023/04/29 02:40:07;;;;;;;27.70;17.80;;;9.20;99.90;;;;;;5046634;28;20049;-79
2023/04/29 02:42:32;;;;;;;31.17;17.85;;;9.20;99.90;;;;;;5046802;28;20593;-79
2023/04/29 02:44:58;;;;;;;27.08;16.30;;;9.10;99.90;;;;;;5028286;28;20057;-79
2023/04/29 02:47:23;;;;;;;26.52;15.90;;;9.20;99.90;;;;;;5029574;28;20522;-80
2023/04/29 02:49:49;;;;;;;24.17;16.95;;;9.10;99.90;;;;;;5029714;28;20039;-80
2023/04/29 02:52:16;;;;;;;29.80;17.38;;;9.20;99.90;;;;;;5046986;28;20044;-79
2023/04/29 02:54:42;;;;;;;25.25;16.77;;;9.10;99.90;;;;;;5046052;28;20060;-79
2023/04/29 02:57:07;;;;;;;26.55;15.90;;;9.10;99.90;;;;;;5029008;28;20040;-80
2023/04/29 02:59:33;;;;;;;26.23;16.65;;;9.10;99.90;;;;;;5032462;28;20099;-80
2023/04/29 03:02:00;;;;;;;25.52;15.35;;;9.10;99.90;;;;;;5054726;28;20136;-80
2023/04/29 03:04:27;;;;;;;29.05;16.88;;;9.20;99.90;;;;;;5035304;28;20049;-80
2023/04/29 03:06:55;;;;;;;24.23;15.20;;;9.10;99.90;;;;;;5035674;28;20056;-80
2023/04/29 03:09:21;;;;;;;25.90;16.80;;;9.10;99.90;;;;;;5043165;28;20062;-80
2023/04/29 03:11:47;;;;;;;26.58;15.60;;;9.00;99.90;;;;;;5036109;28;20083;-80
2023/04/29 03:14:12;;;;;;;25.83;16.38;;;9.00;99.90;;;;;;5052919;28;20073;-80
2023/04/29 03:16:38;;;;;;;27.73;15.48;;;9.00;99.90;;;;;;5034962;28;20340;-80
2023/04/29 03:19:04;;;;;;;21.13;14.82;;;9.00;99.90;;;;;;5036230;28;20049;-80
2023/04/29 03:21:32;;;;;;;21.75;15.65;;;9.00;99.90;;;;;;5035803;28;20045;-80
2023/04/29 03:23:58;;;;;;;27.55;16.00;;;9.00;99.90;;;;;;5035777;28;20880;-80
2023/04/29 03:26:24;;;;;;;24.33;16.42;;;9.00;99.90;;;;;;5052898;28;20067;-80
2023/04/29 03:28:50;;;;;;;25.70;15.52;;;9.00;99.90;;;;;;5015837;28;20488;-80
2023/04/29 03:31:16;;;;;;;27.17;15.93;;;9.00;99.90;;;;;;5033067;28;20361;-80
2023/04/29 03:33:42;;;;;;;25.42;16.55;;;9.00;99.90;;;;;;5029656;28;20040;-80
2023/04/29 03:36:08;;;;;;;23.92;15.98;;;9.00;99.90;;;;;;5034315;28;20207;-80
2023/04/29 03:38:34;;;;;;;27.20;16.15;;;9.00;99.90;;;;;;5032619;28;20558;-80
2023/04/29 03:41:00;;;;;;;23.33;15.30;;;9.00;99.90;;;;;;5030474;28;20523;-80
2023/04/29 03:43:26;;;;;;;24.30;15.45;;;9.00;99.90;;;;;;5022811;28;20045;-81
2023/04/29 03:45:52;;;;;;;26.60;15.55;;;9.00;99.90;;;;;;5019427;28;20168;-81
2023/04/29 03:48:20;;;;;;;24.42;16.88;;;9.00;99.90;;;;;;5052895;28;20587;-82
2023/04/29 03:50:46;;;;;;;25.15;16.20;;;9.00;99.90;;;;;;5047979;28;20056;-81
2023/04/29 03:53:12;;;;;;;28.30;16.38;;;8.90;99.90;;;;;;5073479;28;20430;-80
2023/04/29 03:55:37;;;;;;;28.55;16.92;;;8.90;99.90;;;;;;5055772;28;20048;-80
2023/04/29 03:58:03;;;;;;;24.27;16.05;;;8.90;99.90;;;;;;5043799;28;20047;-80
2023/04/29 04:00:30;;;;;;;23.42;15.00;;;8.90;99.90;;;;;;5034123;28;20102;-80
2023/04/29 04:02:56;;;;;;;27.48;15.75;;;8.90;99.90;;;;;;5036118;28;20139;-80
2023/04/29 04:05:24;;;;;;;22.25;15.80;;;8.90;99.90;;;;;;5035627;28;20053;-80
2023/04/29 04:07:51;;;;;;;25.50;15.93;;;8.90;99.90;;;;;;5053539;28;20045;-80
2023/04/29 04:10:17;;;;;;;27.00;15.73;;;8.90;99.90;;;;;;5033715;28;20044;-80
2023/04/29 04:12:42;;;;;;;24.73;15.48;;;8.90;99.90;;;;;;5050108;28;20081;-80
2023/04/29 04:15:08;;;;;;;26.42;17.08;;;8.90;99.90;;;;;;5031621;28;20052;-80
2023/04/29 04:17:34;;;;;;;28.77;16.45;;;8.80;99.90;;;;;;5016245;28;20045;-80
2023/04/29 04:19:59;;;;;;;27.88;17.08;;;8.80;99.90;;;;;;5031246;28;20049;-80
2023/04/29 04:22:25;;;;;;;27.10;17.05;;;8.80;99.90;;;;;;5048209;28;20041;-80
2023/04/29 04:24:53;;;;;;;24.42;16.10;;;9.00;99.90;;;;;;5049931;28;20037;-80
2023/04/29 04:27:18;;;;;;;26.05;16.95;;;8.80;99.90;;;;;;5031739;28;20045;-80
2023/04/29 04:29:44;;;;;;;28.90;17.13;;;8.80;99.90;;;;;;5032298;28;20106;-80
2023/04/29 04:32:10;;;;;;;25.80;16.80;;;8.80;99.90;;;;;;5048837;28;20049;-80
2023/04/29 04:34:38;;;;;;;29.63;16.83;;;8.80;99.90;;;;;;5049179;28;20063;-80
2023/04/29 04:37:04;;;;;;;25.70;16.25;;;8.80;99.90;;;;;;5048642;28;20049;-80
2023/04/29 04:39:29;;;;;;;27.67;16.60;;;8.80;99.90;;;;;;5049094;28;20044;-80
2023/04/29 04:41:55;;;;;;;31.63;16.23;;;8.70;99.90;;;;;;5048495;28;20056;-80
2023/04/29 04:44:20;;;;;;;28.88;16.33;;;8.70;99.90;;;;;;5049922;28;20045;-80
2023/04/29 04:46:46;;;;;;;25.98;17.15;;;8.70;99.90;;;;;;5050395;28;20356;-80
2023/04/29 04:49:12;;;;;;;28.42;16.13;;;8.80;99.90;;;;;;5032210;28;20045;-80
2023/04/29 04:51:37;;;;;;;25.50;15.75;;;8.70;99.90;;;;;;5049146;28;20057;-80
2023/04/29 04:54:03;;;;;;;21.85;13.82;;;8.70;99.90;;;;;;5049799;28;20037;-80
2023/04/29 04:56:29;;;;;;;26.20;15.30;;;8.70;99.90;;;;;;5050158;28;20045;-80
2023/04/29 04:58:57;;;;;;;24.05;14.55;;;8.70;99.90;;;;;;5027962;28;20045;-80
2023/04/29 05:01:23;;;;;;;25.05;14.13;;;8.70;99.90;;;;;;5057144;28;20369;-80
2023/04/29 05:03:48;;;;;;;26.55;14.23;;;8.70;99.90;;;;;;5049833;28;20686;-80
2023/04/29 05:06:14;;;;;;;22.38;13.93;;;8.70;99.90;;;;;;5010283;28;20079;-80
2023/04/29 05:08:40;;;;;;;23.30;13.70;;;8.80;99.90;;;;;;5031673;28;20120;-80
2023/04/29 05:11:05;;;;;;;22.15;13.30;;;9.00;99.90;;;;;;5049113;28;20609;-80
2023/04/29 05:13:32;;;;;;;26.58;14.77;;;8.80;99.90;;;;;;5048154;28;20095;-80
2023/04/29 05:16:00;;;;;;;24.98;13.68;;;8.80;99.90;;;;;;5031079;28;20370;-79
2023/04/29 05:18:26;;;;;;;24.27;13.25;;;8.80;99.90;;;;;;5010879;28;20057;-80
2023/04/29 05:20:52;;;;;;;23.02;12.70;;;8.80;99.90;;;;;;5023463;28;20571;-80
2023/04/29 05:23:18;;;;;;;23.08;13.25;;;8.90;99.90;;;;;;5039156;28;20182;-80
2023/04/29 05:25:44;;;;;;;19.20;12.73;;;8.80;99.90;;;;;;5014223;28;20057;-80
2023/04/29 05:28:09;;;;;;;23.30;13.23;;;8.90;99.90;;;;;;5046243;28;20041;-81
2023/04/29 05:30:36;;;;;;;24.52;12.68;;;8.90;99.90;;;;;;5047641;28;20044;-80
2023/04/29 05:33:02;;;;;;;20.98;12.70;;;8.90;99.90;;;;;;5028936;28;20144;-80
2023/04/29 05:35:28;;;;;;;21.80;13.45;;;8.90;99.90;;;;;;5031082;28;20128;-81
2023/04/29 05:37:53;;;;;;;22.35;13.18;;;8.90;99.90;;;;;;5047779;28;20128;-80
2023/04/29 05:40:22;;;;;;;19.35;12.85;;;9.00;99.90;;;;;;5022420;28;20099;-80
2023/04/29 05:42:48;;;;;;;22.73;13.18;;;9.00;99.90;;;;;;5013710;28;20033;-80
2023/04/29 05:45:13;;;;;;;27.52;12.68;;;9.00;99.90;;;;;;5049129;28;20107;-80
2023/04/29 05:47:39;;;;;;;18.80;12.50;;;9.00;99.90;;;;;;5047061;28;20037;-80
2023/04/29 05:50:05;;;;;;;22.48;12.82;;;9.00;99.90;;;;;;5040785;28;20037;-80
2023/04/29 05:52:31;;;;;;;18.33;12.63;;;9.10;99.90;;;;;;5028782;28;20056;-78
2023/04/29 05:54:57;;;;;;;20.40;12.15;;;9.10;99.90;;;;;;5030492;28;20411;-80
2023/04/29 05:57:22;;;;;;;19.58;12.20;;;9.10;99.90;;;;;;5047185;28;20144;-79
2023/04/29 05:59:48;;;;;;;17.27;12.07;;;9.10;99.90;;;;;;5030931;28;20044;-80
2023/04/29 06:02:13;;;;;;;16.05;12.02;;;9.20;99.90;;;;;;5031033;28;20045;-80
2023/04/29 06:04:42;;;;;;;23.30;12.85;;;9.20;99.90;;;;;;5047327;28;20037;-80
2023/04/29 06:07:08;;;;;;;22.35;12.23;;;9.30;99.90;;;;;;5045879;28;20045;-80
2023/04/29 06:09:37;;;;;;;21.23;11.60;;;9.30;99.90;;;;;;5028781;28;20135;-80
2023/04/29 06:12:03;;;;;;;18.00;11.88;;;9.40;99.90;;;;;;5035216;28;20513;-80
2023/04/29 06:14:29;;;;;;;21.25;11.27;;;9.40;99.90;;;;;;5013694;28;20802;-81
2023/04/29 06:16:55;;;;;;;20.92;11.32;;;9.40;99.90;;;;;;5029855;28;20144;-81
2023/04/29 06:19:20;;;;;;;16.45;10.80;;;9.50;99.90;;;;;;5029509;28;20387;-81
2023/04/29 06:21:46;;;;;;;16.05;11.45;;;9.50;99.90;;;;;;5028361;28;20119;-80
2023/04/29 06:24:12;;;;;;;18.25;10.93;;;9.60;99.90;;;;;;5029015;28;20043;-80
2023/04/29 06:26:37;;;;;;;20.50;10.65;;;9.60;99.90;;;;;;5048094;28;20045;-80
2023/04/29 06:29:03;;;;;;;17.50;11.00;;;9.70;99.90;;;;;;5029109;28;20056;-80
2023/04/29 06:31:28;;;;;;;20.80;11.75;;;9.70;99.90;;;;;;5029420;28;20044;-79
2023/04/29 06:33:54;;;;;;;16.33;11.57;;;9.80;99.90;;;;;;5029048;28;20049;-79
2023/04/29 06:36:20;;;;;;;18.73;10.82;;;9.90;99.90;;;;;;5047727;28;20048;-79
2023/04/29 06:38:45;;;;;;;16.48;10.63;;;9.80;99.90;;;;;;5046999;28;20388;-79
2023/04/29 06:41:13;;;;;;;17.55;10.00;;;9.90;99.90;;;;;;5029846;28;20111;-79
2023/04/29 06:43:39;;;;;;;15.00;10.70;;;9.90;99.90;;;;;;5028605;28;20072;-79
2023/04/29 06:46:06;;;;;;;18.92;9.90;;;10.00;99.90;;;;;;5029981;28;20056;-79
2023/04/29 06:48:31;;;;;;;15.57;10.25;;;10.10;99.90;;;;;;5013047;28;20049;-79
2023/04/29 06:50:57;;;;;;;17.45;10.38;;;10.10;99.90;;;;;;5027223;28;20510;-80
2023/04/29 06:53:23;;;;;;;16.92;10.00;;;10.20;99.90;;;;;;5031726;28;20045;-78
2023/04/29 06:55:49;;;;;;;15.90;9.75;;;10.30;99.90;;;;;;5046404;28;20045;-80
2023/04/29 06:58:16;;;;;;;15.63;9.88;;;10.40;99.90;;;;;;5047226;28;20526;-79
2023/04/29 07:00:47;;;;;;;12.93;9.65;;;10.60;99.90;;;;;;5046975;28;20065;-79
2023/04/29 07:03:13;;;;;;;15.15;9.77;;;10.70;99.90;;;;;;5029214;28;20067;-78
2023/04/29 07:05:40;;;;;;;14.05;9.60;;;10.90;99.90;;;;;;5046864;28;20086;-79
2023/04/29 07:08:07;;;;;;;14.13;9.18;;;11.10;99.90;;;;;;5046973;28;20052;-80
2023/04/29 07:10:33;;;;;;;13.43;8.98;;;11.20;99.90;;;;;;5029555;28;20160;-78
2023/04/29 07:12:59;;;;;;;13.25;8.60;;;11.30;99.90;;;;;;5029344;28;20480;-78
2023/04/29 07:15:26;;;;;;;13.82;8.57;;;11.40;99.90;;;;;;5029441;28;20045;-78
2023/04/29 07:17:51;;;;;;;13.68;9.25;;;11.50;99.90;;;;;;5046958;28;20048;-80
2023/04/29 07:20:18;;;;;;;12.30;8.73;;;11.50;99.90;;;;;;5027816;28;20404;-80
2023/04/29 07:22:43;;;;;;;12.30;8.65;;;11.60;99.90;;;;;;5028803;28;20045;-80
2023/04/29 07:25:09;;;;;;;11.80;8.40;;;11.50;99.90;;;;;;5029201;28;20064;-80
2023/04/29 07:27:36;;;;;;;13.57;8.65;;;11.50;99.90;;;;;;5029335;28;20053;-79
2023/04/29 07:30:03;;;;;;;10.50;8.25;;;11.40;99.90;;;;;;5046636;28;20053;-80
2023/04/29 07:32:32;;;;;;;14.38;8.52;;;11.40;99.90;;;;;;5046946;28;20049;-80
2023/04/29 07:34:58;;;;;;;9.70;8.38;;;11.40;99.90;;;;;;5061835;28;20132;-80
2023/04/29 07:37:24;;;;;;;10.82;8.02;;;11.50;99.90;;;;;;5046338;28;20506;-80
2023/04/29 07:39:50;;;;;;;10.60;7.07;;;11.60;99.90;;;;;;5027187;28;20081;-79
2023/04/29 07:42:16;;;;;;;13.85;7.03;;;11.80;99.90;;;;;;5045011;28;20053;-80
2023/04/29 07:44:44;;;;;;;13.48;7.38;;;11.90;99.90;;;;;;5026344;28;20045;-80
2023/04/29 07:47:10;;;;;;;9.88;7.60;;;12.00;99.90;;;;;;5049006;28;20123;-80
2023/04/29 07:49:36;;;;;;;10.02;7.40;;;12.00;99.90;;;;;;5029912;28;20061;-80
2023/04/29 07:52:03;;;;;;;12.13;7.20;;;12.20;99.90;;;;;;5048723;28;20052;-80
2023/04/29 07:54:28;;;;;;;9.38;7.25;;;12.20;99.90;;;;;;5049715;28;20053;-80
2023/04/29 07:56:56;;;;;;;9.85;7.03;;;12.30;99.90;;;;;;5049334;28;20048;-79
2023/04/29 07:59:22;;;;;;;10.85;7.53;;;12.40;99.90;;;;;;5050247;28;20041;-79
2023/04/29 08:01:47;;;;;;;9.18;7.00;;;12.40;99.90;;;;;;5051183;28;20052;-80
2023/04/29 08:04:13;;;;;;;9.32;6.95;;;12.50;99.90;;;;;;5029175;28;20052;-79
2023/04/29 08:06:40;;;;;;;18.02;7.80;;;12.60;99.90;;;;;;5040508;28;20041;-79
2023/04/29 08:09:06;;;;;;;11.18;6.72;;;12.60;99.90;;;;;;5018857;28;20053;-80
2023/04/29 08:11:32;;;;;;;10.93;7.28;;;13.00;99.90;;;;;;5033017;28;20555;-80
2023/04/29 08:13:59;;;;;;;8.85;6.63;;;12.80;99.90;;;;;;5031906;28;20176;-80
2023/04/29 08:16:25;;;;;;;11.45;6.90;;;13.00;99.90;;;;;;5040001;28;20041;-80
2023/04/29 08:18:51;;;;;;;10.00;7.75;;;13.00;99.90;;;;;;5047572;28;20045;-80
2023/04/29 08:21:18;;;;;;;9.25;6.75;;;13.10;99.90;;;;;;5050085;28;20056;-80
2023/04/29 08:23:44;;;;;;;11.32;7.07;;;13.10;99.90;;;;;;5037712;28;20041;-80
2023/04/29 08:26:11;;;;;;;8.13;7.05;;;13.20;99.90;;;;;;5029403;28;20049;-80
2023/04/29 08:28:38;;;;;;;9.07;7.28;;;13.30;99.90;;;;;;5018555;28;20052;-80
2023/04/29 08:31:06;;;;;;;9.52;7.10;;;13.30;99.90;;;;;;5049265;28;20353;-79
2023/04/29 08:33:35;;;;;;;9.43;7.00;;;13.40;99.90;;;;;;5049413;28;20479;-79
2023/04/29 08:36:02;;;;;;;7.75;6.75;;;13.40;99.90;;;;;;5050337;28;20074;-79
2023/04/29 08:38:28;;;;;;;11.38;7.03;;;13.30;99.90;;;;;;5048986;28;20411;-80
2023/04/29 08:40:55;;;;;;;9.88;7.43;;;13.30;99.90;;;;;;5051293;28;20060;-80
2023/04/29 08:43:21;;;;;;;9.32;7.03;;;13.40;99.90;;;;;;5050782;28;20049;-80
2023/04/29 08:45:50;;;;;;;9.50;7.03;;;13.50;99.90;;;;;;5031680;28;20076;-80
2023/04/29 08:48:17;;;;;;;10.85;7.40;;;13.60;99.90;;;;;;5031295;28;20045;-80
2023/04/29 08:50:46;;;;;;;10.57;7.00;;;13.70;99.90;;;;;;5032659;28;20052;-80
2023/04/29 08:53:14;;;;;;;9.35;7.05;;;13.80;99.90;;;;;;5049408;28;20053;-81
2023/04/29 08:55:45;;;;;;;7.63;6.80;;;14.00;99.90;;;;;;5032774;28;20063;-81
2023/04/29 08:58:12;;;;;;;10.75;7.00;;;14.10;99.90;;;;;;5049843;28;20052;-81
2023/04/29 09:00:40;;;;;;;8.45;6.88;;;14.10;99.90;;;;;;5031513;28;20052;-81
2023/04/29 09:03:30;;;;;;;10.30;7.28;;;14.00;99.90;;;;;;5050038;28;20052;-80
2023/04/29 09:05:59;;;;;;;8.52;6.32;;;13.90;99.90;;;;;;5050709;28;20045;-80
2023/04/29 09:08:26;;;;;;;9.27;6.97;;;13.90;99.90;;;;;;5048814;28;20048;-79
2023/04/29 09:10:52;;;;;;;11.88;7.20;;;14.00;99.90;;;;;;5037671;28;20527;-80
2023/04/29 09:13:26;;;;;;;10.52;7.68;;;14.20;99.90;;;;;;5029331;28;20041;-80
2023/04/29 09:15:52;;;;;;;8.30;6.80;;;14.30;99.90;;;;;;5023767;28;20388;-80
2023/04/29 09:18:47;;;;;;;9.52;6.55;;;14.30;99.90;;;;;;5059783;28;20518;-80
2023/04/29 09:21:19;;;;;;;9.13;6.43;;;14.40;99.90;;;;;;5049766;28;20045;-79
2023/04/29 09:23:47;;;;;;;9.00;7.07;;;14.60;99.90;;;;;;5049534;28;20687;-78
2023/04/29 09:26:14;;;;;;;8.32;6.57;;;14.90;99.90;;;;;;5050554;28;20041;-79
2023/04/29 09:28:42;;;;;;;8.98;6.30;;;15.10;99.90;;;;;;5032349;28;20089;-79
2023/04/29 09:31:08;;;;;;;8.25;6.28;;;15.10;99.90;;;;;;5032113;28;20597;-80
2023/04/29 09:33:56;;;;;;;9.07;6.28;;;15.00;99.90;;;;;;5031205;28;20084;-80
2023/04/29 09:36:44;;;;;;;8.80;5.90;;;14.70;99.90;;;;;;5047658;28;20084;-81
2023/04/29 09:39:11;;;;;;;7.78;5.80;;;14.60;99.90;;;;;;5031630;28;20427;-81
2023/04/29 09:41:56;;;;;;;7.40;6.10;;;14.50;99.90;;;;;;5032419;28;20123;-82
2023/04/29 09:44:30;;;;;;;10.27;6.00;;;14.50;99.90;;;;;;5031716;28;20083;-81
2023/04/29 09:47:02;;;;;;;7.03;5.55;;;14.60;99.90;;;;;;5048140;28;20041;-81
2023/04/29 09:49:38;;;;;;;8.90;5.55;;;14.80;99.90;;;;;;5048476;28;20045;-81
2023/04/29 09:52:05;;;;;;;9.05;5.03;;;14.90;99.90;;;;;;5030670;28;20045;-81
2023/04/29 09:54:35;;;;;;;8.40;5.50;;;15.10;99.90;;;;;;5046063;28;20506;-81
2023/04/29 09:57:04;;;;;;;9.38;6.03;;;15.20;99.90;;;;;;5034056;28;20040;-81
2023/04/29 09:59:32;;;;;;;8.40;5.45;;;15.00;99.90;;;;;;5011430;28;20080;-82
2023/04/29 10:01:58;;;;;;;7.28;5.20;;;15.10;99.90;;;;;;5046531;28;20050;-80
2023/04/29 10:04:25;;;;;;;8.40;5.80;;;15.20;99.90;;;;;;5048854;28;20036;-81
2023/04/29 10:06:53;;;;;;;7.35;5.57;;;15.50;99.90;;;;;;5047961;28;20036;-81
2023/04/29 10:09:20;;;;;;;11.73;5.75;;;15.40;99.90;;;;;;5035042;28;20117;-82
2023/04/29 10:11:47;;;;;;;7.55;5.57;;;15.20;99.90;;;;;;5046970;28;20059;-81
2023/04/29 10:14:25;;;;;;;7.95;5.15;;;15.30;99.90;;;;;;5042412;28;20038;-81
2023/04/29 10:17:01;;;;;;;8.23;5.40;;;15.40;99.90;;;;;;5026983;28;20041;-80
2023/04/29 10:19:37;;;;;;;8.85;5.57;;;15.30;99.90;;;;;;5026085;28;20042;-80
2023/04/29 10:22:08;;;;;;;6.93;5.43;;;15.30;99.90;;;;;;5032625;28;20109;-80
2023/04/29 10:24:37;;;;;;;8.30;5.55;;;15.20;99.90;;;;;;5045521;28;20052;-81
2023/04/29 10:27:07;;;;;;;7.93;5.75;;;15.40;99.90;;;;;;5046719;28;20044;-81
2023/04/29 10:29:35;;;;;;;7.50;5.18;;;15.40;99.90;;;;;;5045497;28;20052;-81
2023/04/29 10:32:03;;;;;;;8.18;5.30;;;15.50;99.90;;;;;;5048141;28;20048;-80
2023/04/29 10:34:32;;;;;;;7.10;5.25;;;15.70;99.90;;;;;;5048085;28;20118;-81
2023/04/29 10:36:58;;;;;;;6.30;4.97;;;15.70;99.90;;;;;;5030043;28;20056;-80
2023/04/29 10:39:36;;;;;;;9.77;5.13;;;15.80;99.90;;;;;;5046932;28;20102;-80
2023/04/29 10:42:04;;;;;;;5.90;4.85;;;15.90;99.90;;;;;;5045900;28;20045;-80
2023/04/29 10:44:30;;;;;;;9.40;5.60;;;15.90;99.90;;;;;;5018762;28;20041;-80
2023/04/29 10:47:18;;;;;;;7.78;5.60;;;16.10;99.90;;;;;;5038512;28;20053;-81
2023/04/29 10:50:03;;;;;;;7.40;5.10;;;15.60;97.50;;;;;;5048045;28;20101;-81
2023/04/29 10:52:29;;;;;;;7.45;4.90;;;15.90;98.90;;;;;;5029689;28;20056;-81
2023/04/29 10:55:02;;;;;;;7.45;4.78;;;15.70;99.80;;;;;;5029284;28;20084;-80
2023/04/29 10:57:29;;;;;;;5.78;4.72;;;15.70;97.40;;;;;;5029873;28;20066;-80
2023/04/29 10:59:55;;;;;;;8.55;5.72;;;15.70;99.30;;;;;;5047030;28;20075;-81
2023/04/29 11:02:21;;;;;;;6.90;4.80;;;15.60;99.30;;;;;;5026672;28;20049;-81
2023/04/29 11:05:08;;;;;;;6.45;4.35;;;15.60;99.20;;;;;;5028696;28;20368;-80
2023/04/29 11:07:34;;;;;;;5.88;3.75;;;15.50;93.30;;;;;;5029264;28;20061;-80
2023/04/29 11:10:01;;;;;;;5.25;4.22;;;15.50;96.60;;;;;;5030010;28;20045;-80
2023/04/29 11:12:27;;;;;;;6.50;4.55;;;15.50;95.50;;;;;;5028725;28;20049;-81
2023/04/29 11:15:00;;;;;;;9.10;5.30;;;15.60;95.30;;;;;;5047786;28;20052;-80
2023/04/29 11:17:33;;;;;;;6.28;4.68;;;15.80;95.50;;;;;;5047397;28;20486;-81
2023/04/29 11:20:00;;;;;;;8.27;4.90;;;15.80;95.80;;;;;;5027969;28;20086;-81
2023/04/29 11:22:27;;;;;;;6.97;4.60;;;15.70;93.90;;;;;;5048381;28;20282;-80
2023/04/29 11:25:06;;;;;;;5.43;4.35;;;15.80;93.80;;;;;;5033857;28;20079;-80
2023/04/29 11:27:37;;;;;;;5.57;4.40;;;15.90;92.70;;;;;;5050846;28;20068;-81
2023/04/29 11:30:05;;;;;;;7.43;4.10;;;15.80;92.90;;;;;;5051247;28;20041;-81
2023/04/29 11:32:36;;;;;;;6.40;4.80;;;15.90;93.50;;;;;;5032129;28;20194;-81
2023/04/29 11:35:08;;;;;;;5.00;3.97;;;15.90;93.30;;;;;;5050445;28;20053;-80
2023/04/29 11:37:34;;;;;;;4.82;3.70;;;15.90;78.10;;;;;;5029100;28;20046;-81
2023/04/29 11:40:00;;;;;;;4.88;3.67;;;15.80;92.40;;;;;;5046905;28;20056;-81
2023/04/29 11:42:27;;;;;;;6.00;3.92;;;15.80;91.10;;;;;;5029930;28;20048;-81
2023/04/29 11:44:55;;;;;;;5.00;3.25;;;15.80;91.90;;;;;;5029941;28;20041;-80
2023/04/29 11:47:28;;;;;;;6.10;3.60;;;15.90;91.10;;;;;;5029243;28;20136;-80
2023/04/29 11:50:01;;;;;;;7.05;3.22;;;15.80;89.50;;;;;;5030217;28;20128;-80
2023/04/29 11:52:27;;;;;;;5.68;3.50;;;15.80;89.00;;;;;;5014265;28;20037;-80
2023/04/29 11:54:53;;;;;;;9.02;3.78;;;15.90;90.40;;;;;;5049543;28;20090;-80
2023/04/29 11:57:19;;;;;;;5.60;3.30;;;15.90;90.40;;;;;;5031934;28;20460;-80
2023/04/29 11:59:45;;;;;;;6.05;3.97;;;16.00;91.20;;;;;;5050040;28;20033;-80
2023/04/29 12:02:12;;;;;;;6.38;4.05;;;16.10;90.80;;;;;;5050820;28;20056;-80
2023/04/29 12:04:45;;;;;;;5.30;3.90;;;16.10;90.50;;;;;;5050751;28;20049;-80
2023/04/29 12:07:16;;;;;;;4.40;3.63;;;16.10;82.70;;;;;;5032888;28;20045;-80
2023/04/29 12:09:46;;;;;;;4.63;3.20;;;16.10;87.90;;;;;;5016028;28;20842;-80
2023/04/29 12:12:13;;;;;;;5.47;3.60;;;16.10;88.60;;;;;;5049911;28;20056;-80
2023/04/29 12:14:40;;;;;;;4.93;3.47;;;16.20;90.40;;;;;;5049390;28;20075;-80
2023/04/29 12:17:06;;;;;;;3.70;3.17;;;16.10;90.50;;;;;;5049668;28;20051;-80
2023/04/29 12:19:32;;;;;;;6.32;3.55;;;16.10;90.60;;;;;;5049930;28;20084;-80
2023/04/29 12:21:59;;;;;;;5.18;3.70;;;16.10;90.40;;;;;;5033134;28;20088;-80
2023/04/29 12:24:24;;;;;;;3.95;2.85;;;16.00;89.30;;;;;;5049023;28;20041;-79
2023/04/29 12:26:50;;;;;;;5.78;3.33;;;16.00;90.20;;;;;;5032700;28;20052;-81
2023/04/29 12:29:19;;;;;;;5.10;3.78;;;16.00;90.90;;;;;;5030934;28;20037;-79
2023/04/29 12:31:46;;;;;;;4.57;3.63;;;16.10;90.50;;;;;;5030631;28;20049;-79
2023/04/29 12:34:12;;;;;;;4.47;3.70;;;16.40;88.50;;;;;;5050334;28;20037;-79
2023/04/29 12:36:41;;;;;;;4.93;3.80;;;16.50;90.20;;;;;;5050358;28;20045;-78
2023/04/29 12:39:09;;;;;;;3.75;3.25;;;16.50;84.80;;;;;;5049489;28;20057;-79
2023/04/29 12:41:39;;;;;;;3.85;3.45;;;16.50;90.00;;;;;;5050243;28;20037;-78
2023/04/29 12:44:05;;;;;;;6.13;3.70;;;16.60;88.50;;;;;;5050144;28;20099;-78